createdAt,value
2019-02-05T00:04:17.480Z,101958.38
2019-02-05T00:07:20.860Z,101949.25
2019-02-05T00:10:24.418Z,101947.65
2019-02-05T00:13:27.804Z,101955.77
2019-02-05T00:16:31.179Z,101949.82
2019-02-05T00:19:36.363Z,101935.73
2019-02-05T00:22:39.859Z,101934.98
2019-02-05T00:26:06.388Z,101935.55
2019-02-05T00:29:27.049Z,101927.63
2019-02-05T00:32:30.432Z,101927.36
2019-02-05T00:35:35.922Z,101939.05
2019-02-05T00:38:39.299Z,101928.16
2019-02-05T00:41:42.746Z,101925.00
2019-02-05T00:44:46.505Z,101923.14
2019-02-05T00:47:49.904Z,101923.56
2019-02-05T00:50:53.406Z,101915.52
2019-02-05T00:53:58.517Z,101921.06
2019-02-05T00:57:02.143Z,101920.98
2019-02-05T01:00:26.495Z,101908.53
2019-02-05T01:03:29.897Z,101919.29
2019-02-05T01:06:33.444Z,101934.80
2019-02-05T01:09:36.921Z,101928.91
2019-02-05T01:12:40.299Z,101934.45
2019-02-05T01:15:45.489Z,101933.30
2019-02-05T01:18:48.866Z,101932.75
2019-02-05T01:21:52.255Z,101934.86
2019-02-05T01:24:57.387Z,101933.42
2019-02-05T01:28:00.751Z,101927.02
2019-02-05T01:31:04.149Z,101926.95
2019-02-05T01:34:09.240Z,101917.55
2019-02-05T01:37:12.625Z,101934.52
2019-02-05T01:40:36.816Z,101924.75
2019-02-05T01:43:40.190Z,101930.66
2019-02-05T01:46:45.570Z,101937.09
2019-02-05T01:49:49.131Z,101927.45
2019-02-05T01:52:52.810Z,101932.14
2019-02-05T01:56:18.851Z,101930.31
2019-02-05T01:59:22.441Z,101932.75
2019-02-05T02:02:25.846Z,101929.27
2019-02-05T02:05:29.551Z,101934.44
2019-02-05T02:08:34.664Z,101929.56
2019-02-05T02:11:38.037Z,101930.72
2019-02-05T02:14:41.420Z,101924.16
2019-02-05T02:17:46.855Z,101924.98
2019-02-05T02:24:17.572Z,101934.67
2019-02-05T02:34:00.976Z,101941.69
2019-02-05T02:37:04.424Z,101933.20
2019-02-05T02:40:47.728Z,101926.13
2019-02-05T02:43:51.114Z,101934.30
2019-02-05T02:46:54.496Z,101934.30
2019-02-05T02:49:59.929Z,101926.75
2019-02-05T02:53:03.368Z,101933.16
2019-02-05T02:56:06.746Z,101932.80
2019-02-05T02:59:10.205Z,101926.04
2019-02-05T03:02:13.653Z,101922.82
2019-02-05T03:05:56.943Z,101928.77
2019-02-05T03:09:00.390Z,101931.18
2019-02-05T03:12:23.216Z,101933.52
2019-02-05T03:15:45.944Z,101947.04
2019-02-05T03:18:51.035Z,101941.04
2019-02-05T03:21:54.428Z,101933.95
2019-02-05T03:25:36.399Z,101935.75
2019-02-05T03:28:39.846Z,101942.67
2019-02-05T03:31:43.269Z,101944.65
2019-02-05T03:34:46.675Z,101952.75
2019-02-05T03:41:19.429Z,101956.48
2019-02-05T03:44:24.550Z,101953.05
2019-02-05T03:47:39.573Z,101958.27
2019-02-05T03:51:22.862Z,101959.81
2019-02-05T03:55:06.229Z,101960.22
2019-02-05T03:58:49.508Z,101957.52
2019-02-05T04:02:31.485Z,101958.75
2019-02-05T04:06:14.777Z,101950.72
2019-02-05T04:09:56.744Z,101949.98
2019-02-05T04:13:38.958Z,101945.47
2019-02-05T04:17:22.566Z,101952.08
2019-02-05T04:21:04.551Z,101941.94
2019-02-05T04:24:46.514Z,101950.67
2019-02-05T04:28:29.816Z,101951.20
2019-02-05T04:32:13.510Z,101966.05
2019-02-05T04:35:55.492Z,101961.55
2019-02-05T04:39:38.819Z,101955.87
2019-02-05T04:43:22.123Z,101954.33
2019-02-05T04:47:04.084Z,101954.10
2019-02-05T04:50:47.673Z,101955.87
2019-02-05T04:54:31.022Z,101959.50
2019-02-05T04:58:14.316Z,101948.34
2019-02-05T05:01:57.660Z,101947.18
2019-02-05T05:05:39.627Z,101954.84
2019-02-05T05:09:22.869Z,101951.35
2019-02-05T05:16:28.912Z,101957.84
2019-02-05T05:20:12.205Z,101953.13
2019-02-05T05:23:15.644Z,101951.15
2019-02-05T05:26:19.427Z,101950.30
2019-02-05T05:29:23.233Z,101953.48
2019-02-05T05:32:26.620Z,101967.12
2019-02-05T05:35:40.648Z,101971.34
2019-02-05T05:38:35.167Z,101965.41
2019-02-05T05:41:38.553Z,101969.59
2019-02-05T05:44:41.940Z,101970.91
2019-02-05T05:47:45.332Z,101972.72
2019-02-05T05:50:48.693Z,101975.67
2019-02-05T05:53:52.071Z,101981.20
2019-02-05T05:56:57.190Z,101969.78
2019-02-05T06:00:00.574Z,101974.81
2019-02-05T06:03:03.947Z,101965.88
2019-02-05T06:06:09.043Z,101972.45
2019-02-05T06:09:12.506Z,101970.76
2019-02-05T06:12:15.867Z,101972.91
2019-02-05T06:15:20.971Z,101972.59
2019-02-05T06:18:24.355Z,101973.70
2019-02-05T06:21:27.740Z,101977.06
2019-02-05T06:24:31.107Z,101981.91
2019-02-05T06:27:34.567Z,101978.92
2019-02-05T06:30:37.943Z,101976.78
2019-02-05T06:33:41.323Z,101981.73
2019-02-05T06:36:44.695Z,101986.76
2019-02-05T06:39:48.083Z,101992.95
2019-02-05T06:42:51.456Z,101999.02
2019-02-05T06:45:54.845Z,102002.23
2019-02-05T06:48:58.244Z,102004.47
2019-02-05T06:52:01.613Z,102011.80
2019-02-05T06:55:44.918Z,102013.02
2019-02-05T06:58:48.285Z,102018.44
2019-02-05T07:01:51.680Z,102018.75
2019-02-05T07:04:55.051Z,102032.09
2019-02-05T07:07:58.615Z,102036.02
2019-02-05T07:11:02.228Z,102041.05
2019-02-05T07:14:45.531Z,102032.50
2019-02-05T07:18:08.366Z,102034.53
2019-02-05T07:21:12.050Z,102038.26
2019-02-05T07:24:15.402Z,102040.64
2019-02-05T07:27:18.795Z,102039.97
2019-02-05T07:31:03.811Z,102046.80
2019-02-05T07:34:26.524Z,102051.25
2019-02-05T07:37:29.925Z,102049.03
2019-02-05T07:40:33.611Z,102054.31
2019-02-05T07:43:56.419Z,102055.65
2019-02-05T07:47:19.145Z,102058.84
2019-02-05T07:51:02.429Z,102059.02
2019-02-05T07:54:05.833Z,102058.48
2019-02-05T07:57:10.937Z,102064.86
2019-02-05T08:00:33.933Z,102068.18
2019-02-05T08:03:56.628Z,102066.91
2019-02-05T08:07:19.402Z,102068.05
2019-02-05T08:11:02.717Z,102079.19
2019-02-05T08:14:46.013Z,102081.32
2019-02-05T08:17:49.467Z,102078.47
2019-02-05T08:20:52.860Z,102085.05
2019-02-05T08:23:58.343Z,102088.16
2019-02-05T08:27:01.736Z,102088.90
2019-02-05T08:30:45.016Z,102096.08
2019-02-05T08:33:48.405Z,102101.28
2019-02-05T08:36:51.780Z,102100.13
2019-02-05T08:39:55.170Z,102097.11
2019-02-05T08:42:58.559Z,102102.17
2019-02-05T08:46:02.113Z,102104.96
2019-02-05T08:49:24.845Z,102109.44
2019-02-05T08:52:28.207Z,102111.80
2019-02-05T08:55:31.967Z,102116.41
2019-02-05T08:58:54.630Z,102121.42
2019-02-05T09:01:58.017Z,102127.72
2019-02-05T09:05:01.409Z,102126.70
2019-02-05T09:08:24.121Z,102131.50
2019-02-05T09:11:29.480Z,102135.09
2019-02-05T09:14:32.885Z,102130.42
2019-02-05T09:17:55.591Z,102132.91
2019-02-05T09:20:58.968Z,102130.56
2019-02-05T09:24:02.349Z,102139.78
2019-02-05T09:27:05.725Z,102143.83
2019-02-05T09:30:49.030Z,102143.98
2019-02-05T09:33:52.421Z,102148.52
2019-02-05T09:36:57.516Z,102142.34
2019-02-05T09:40:00.890Z,102149.41
2019-02-05T09:46:46.903Z,102144.38
2019-02-05T09:50:02.507Z,102146.75
2019-02-05T09:53:06.188Z,102143.25
2019-02-05T09:56:09.633Z,102144.91
2019-02-05T09:59:13.013Z,102145.02
2019-02-05T10:02:16.415Z,102140.95
2019-02-05T10:05:59.678Z,102152.03
2019-02-05T10:09:03.453Z,102142.57
2019-02-05T10:12:06.965Z,102151.71
2019-02-05T10:15:50.456Z,102152.91
2019-02-05T10:19:13.702Z,102161.19
2019-02-05T10:26:00.703Z,102167.08
2019-02-05T10:29:04.339Z,102161.50
2019-02-05T10:32:07.780Z,102164.50
2019-02-05T10:35:11.302Z,102162.05
2019-02-05T10:38:35.735Z,102162.78
2019-02-05T10:41:39.483Z,102160.94
2019-02-05T10:45:02.234Z,102164.93
2019-02-05T10:48:24.951Z,102159.59
2019-02-05T10:51:28.333Z,102162.09
2019-02-05T10:54:31.713Z,102171.34
2019-02-05T10:57:55.426Z,102168.31
2019-02-05T11:01:18.155Z,102172.05
2019-02-05T11:04:21.590Z,102169.80
2019-02-05T11:07:44.402Z,102164.00
2019-02-05T11:10:47.774Z,102163.42
2019-02-05T11:13:51.151Z,102161.45
2019-02-05T11:16:55.475Z,102162.67
2019-02-05T11:19:58.932Z,102166.08
2019-02-05T11:23:02.385Z,102158.31
2019-02-05T11:26:05.841Z,102158.89
2019-02-05T11:29:09.529Z,102159.15
2019-02-05T11:32:12.975Z,102157.53
2019-02-05T11:35:16.506Z,102159.72
2019-02-05T11:38:19.954Z,102155.86
2019-02-05T11:41:23.343Z,102160.11
2019-02-05T11:44:28.665Z,102150.10
2019-02-05T11:47:32.048Z,102157.24
2019-02-05T11:50:35.516Z,102159.00
2019-02-05T11:53:38.888Z,102160.69
2019-02-05T11:56:42.279Z,102154.84
2019-02-05T11:59:45.798Z,102155.34
2019-02-05T12:02:49.613Z,102151.66
2019-02-05T12:05:52.976Z,102155.78
2019-02-05T12:08:56.547Z,102154.12
2019-02-05T12:12:01.816Z,102156.19
2019-02-05T12:15:08.563Z,102146.23
2019-02-05T12:18:11.959Z,102144.08
2019-02-05T12:21:15.723Z,102138.53
2019-02-05T12:24:27.178Z,102145.46
2019-02-05T12:27:30.563Z,102146.55
2019-02-05T12:30:44.552Z,102146.08
2019-02-05T12:33:41.565Z,102145.41
2019-02-05T12:36:44.962Z,102147.55
2019-02-05T12:39:48.641Z,102149.95
2019-02-05T12:42:52.398Z,102144.79
2019-02-05T12:45:55.784Z,102141.09
2019-02-05T12:48:59.632Z,102138.30
2019-02-05T12:52:03.017Z,102131.50
2019-02-05T12:55:13.358Z,102129.61
2019-02-05T12:58:14.638Z,102129.79
2019-02-05T13:01:18.043Z,102132.77
2019-02-05T13:04:22.331Z,102134.89
2019-02-05T13:07:25.894Z,102130.31
2019-02-05T13:10:32.047Z,102129.41
2019-02-05T13:13:35.509Z,102127.80
2019-02-05T13:16:39.127Z,102135.36
2019-02-05T13:19:42.504Z,102132.78
2019-02-05T13:22:46.398Z,102126.22
2019-02-05T13:25:50.034Z,102124.43
2019-02-05T13:28:53.409Z,102126.20
2019-02-05T13:31:58.761Z,102133.46
2019-02-05T13:35:02.390Z,102127.02
2019-02-05T13:38:06.208Z,102127.97
2019-02-05T13:41:09.648Z,102131.69
2019-02-05T13:44:13.070Z,102135.41
2019-02-05T13:47:16.440Z,102129.30
2019-02-05T13:50:33.043Z,102130.14
2019-02-05T13:53:32.631Z,102134.90
2019-02-05T13:56:37.047Z,102126.90
2019-02-05T13:59:40.419Z,102127.05
2019-02-05T14:02:43.798Z,102121.69
2019-02-05T14:05:47.357Z,102122.06
2019-02-05T14:08:50.767Z,102123.93
2019-02-05T14:11:54.243Z,102115.86
2019-02-05T14:14:57.598Z,102117.50
2019-02-05T14:18:00.972Z,102122.23
2019-02-05T14:21:04.493Z,102125.19
2019-02-05T14:24:08.208Z,102125.43
2019-02-05T14:27:11.725Z,102123.80
2019-02-05T14:30:36.143Z,102122.03
2019-02-05T14:33:39.833Z,102126.69
2019-02-05T14:36:43.288Z,102121.52
2019-02-05T14:39:49.074Z,102117.98
2019-02-05T14:42:54.307Z,102120.53
2019-02-05T14:45:57.695Z,102116.18
2019-02-05T14:49:01.069Z,102117.54
2019-02-05T14:52:04.706Z,102117.84
2019-02-05T14:55:08.079Z,102120.97
2019-02-05T14:58:12.405Z,102120.94
2019-02-05T15:01:16.053Z,102123.92
2019-02-05T15:04:19.672Z,102122.94
2019-02-05T15:07:23.155Z,102120.19
2019-02-05T15:10:26.796Z,102124.23
2019-02-05T15:13:30.185Z,102119.03
2019-02-05T15:16:33.574Z,102119.08
2019-02-05T15:19:36.957Z,102119.04
2019-02-05T15:22:40.337Z,102121.14
2019-02-05T15:25:43.961Z,102123.48
2019-02-05T15:28:48.505Z,102115.98
2019-02-05T15:31:54.618Z,102118.66
2019-02-05T15:34:57.240Z,102118.37
2019-02-05T15:38:00.696Z,102114.67
2019-02-05T15:41:04.217Z,102121.63
2019-02-05T15:44:07.667Z,102119.90
2019-02-05T15:47:11.055Z,102116.21
2019-02-05T15:50:14.979Z,102118.45
2019-02-05T15:53:18.370Z,102121.67
2019-02-05T15:56:21.899Z,102120.57
2019-02-05T15:59:25.276Z,102120.57
2019-02-05T16:02:28.674Z,102122.04
2019-02-05T16:05:32.242Z,102112.54
2019-02-05T16:08:42.403Z,102115.53
2019-02-05T16:11:45.798Z,102112.39
2019-02-05T16:14:49.174Z,102118.27
2019-02-05T16:17:54.555Z,102120.67
2019-02-05T16:20:57.941Z,102113.39
2019-02-05T16:24:01.422Z,102115.42
2019-02-05T16:27:05.068Z,102118.66
2019-02-05T16:30:23.062Z,102113.30
2019-02-05T16:33:26.489Z,102115.53
2019-02-05T16:36:29.886Z,102117.39
2019-02-05T16:39:33.255Z,102123.53
2019-02-05T16:42:36.918Z,102123.67
2019-02-05T16:45:40.363Z,102119.70
2019-02-05T16:48:43.771Z,102121.23
2019-02-05T16:51:47.190Z,102122.38
2019-02-05T16:54:50.576Z,102120.16
2019-02-05T16:57:53.970Z,102122.87
2019-02-05T17:05:17.494Z,102122.29
2019-02-05T17:08:20.886Z,102116.98
2019-02-05T17:11:25.268Z,102119.75
2019-02-05T17:14:28.856Z,102122.48
2019-02-05T17:17:32.266Z,102131.52
2019-02-05T17:20:55.009Z,102125.15
2019-02-05T17:23:58.396Z,102121.56
2019-02-05T17:27:01.806Z,102131.52
2019-02-05T17:30:45.410Z,102133.19
2019-02-05T17:33:48.815Z,102131.39
2019-02-05T17:36:52.487Z,102131.47
2019-02-05T17:40:16.165Z,102135.37
2019-02-05T17:43:19.564Z,102134.27
2019-02-05T17:46:23.289Z,102132.22
2019-02-05T17:49:26.682Z,102122.27
2019-02-05T17:52:30.080Z,102121.48
2019-02-05T17:55:33.888Z,102121.13
2019-02-05T17:58:37.295Z,102113.03
2019-02-05T18:01:40.848Z,102119.80
2019-02-05T18:04:44.478Z,102118.80
2019-02-05T18:07:48.331Z,102127.63
2019-02-05T18:10:51.972Z,102128.30
2019-02-05T18:13:55.393Z,102128.00
2019-02-05T18:16:58.788Z,102127.81
2019-02-05T18:20:02.595Z,102132.77
2019-02-05T18:23:06.345Z,102129.00
2019-02-05T18:26:10.155Z,102128.55
2019-02-05T18:29:15.318Z,102121.52
2019-02-05T18:32:19.102Z,102122.58
2019-02-05T18:35:22.507Z,102124.25
2019-02-05T18:38:26.626Z,102121.52
2019-02-05T18:41:30.122Z,102120.38
2019-02-05T18:44:52.868Z,102118.86
2019-02-05T18:47:56.686Z,102118.08
2019-02-05T18:51:01.801Z,102114.36
2019-02-05T18:54:45.142Z,102111.30
2019-02-05T18:57:48.541Z,102112.81
2019-02-05T19:00:52.266Z,102121.63
2019-02-05T19:03:55.651Z,102108.31
2019-02-05T19:06:59.063Z,102107.94
2019-02-05T19:10:02.880Z,102107.42
2019-02-05T19:13:06.419Z,102110.91
2019-02-05T19:16:10.191Z,102112.38
2019-02-05T19:19:15.291Z,102098.53
2019-02-05T19:22:38.313Z,102095.06
2019-02-05T19:26:00.831Z,102100.86
2019-02-05T19:29:18.819Z,102108.50
2019-02-05T19:36:01.725Z,102108.13
2019-02-05T19:39:45.272Z,102107.64
2019-02-05T19:42:48.844Z,102103.28
2019-02-05T19:46:11.634Z,102100.01
2019-02-05T19:49:34.137Z,102101.56
2019-02-05T19:52:37.537Z,102104.41
2019-02-05T19:55:40.936Z,102106.73
2019-02-05T19:58:44.331Z,102104.84
2019-02-05T20:01:48.181Z,102113.88
2019-02-05T20:05:11.798Z,102103.92
2019-02-05T20:08:15.201Z,102103.34
2019-02-05T20:11:38.217Z,102094.67
2019-02-05T20:15:00.959Z,102093.63
2019-02-05T20:18:04.688Z,102080.70
2019-02-05T20:21:31.950Z,102081.30
2019-02-05T20:24:53.622Z,102078.91
2019-02-05T20:27:57.035Z,102078.73
2019-02-05T20:31:00.439Z,102084.37
2019-02-05T20:37:46.968Z,102078.16
2019-02-05T20:40:50.446Z,102077.25
2019-02-05T20:43:53.838Z,102079.17
2019-02-05T20:46:57.247Z,102086.22
2019-02-05T20:50:02.353Z,102086.55
2019-02-05T20:53:13.506Z,102082.63
2019-02-05T20:56:11.360Z,102085.34
2019-02-05T20:59:15.185Z,102082.64
2019-02-05T21:02:18.592Z,102078.86
2019-02-05T21:05:41.299Z,102076.47
2019-02-05T21:08:44.699Z,102079.17
2019-02-05T21:12:07.555Z,102067.34
2019-02-05T21:15:31.685Z,102077.60
2019-02-05T21:18:35.362Z,102078.97
2019-02-05T21:21:38.746Z,102076.39
2019-02-05T21:24:42.432Z,102079.28
2019-02-05T21:28:25.752Z,102071.56
2019-02-05T21:31:48.479Z,102079.55
2019-02-05T21:34:51.896Z,102067.56
2019-02-05T21:37:55.705Z,102075.77
2019-02-05T21:41:18.528Z,102081.72
2019-02-05T21:44:22.106Z,102077.20
2019-02-05T21:47:44.844Z,102070.05
2019-02-05T21:50:48.231Z,102070.81
2019-02-05T21:57:21.158Z,102063.84
2019-02-05T22:00:43.883Z,102060.29
2019-02-05T22:03:47.586Z,102056.70
2019-02-05T22:06:51.331Z,102056.48
2019-02-05T22:10:14.198Z,102048.95
2019-02-05T22:13:19.597Z,102058.86
2019-02-05T22:16:23.308Z,102059.37
2019-02-05T22:19:27.017Z,102063.77
2019-02-05T22:22:49.833Z,102059.84
2019-02-05T22:25:53.504Z,102060.25
2019-02-05T22:28:56.913Z,102062.96
2019-02-05T22:32:00.308Z,102065.42
2019-02-05T22:38:53.845Z,102063.91
2019-02-05T22:41:58.964Z,102064.41
2019-02-05T22:45:02.369Z,102065.15
2019-02-05T22:48:45.674Z,102056.61
2019-02-05T22:51:49.071Z,102053.77
2019-02-05T22:54:52.706Z,102061.80
2019-02-05T22:57:56.114Z,102054.71
2019-02-05T23:01:39.420Z,102054.71
2019-02-05T23:05:22.743Z,102058.29
2019-02-05T23:08:26.457Z,102052.31
2019-02-05T23:12:08.466Z,102052.91
2019-02-05T23:15:52.026Z,102048.69
2019-02-05T23:18:55.525Z,102053.84
2019-02-05T23:21:58.911Z,102045.08
2019-02-05T23:25:02.478Z,102038.86
2019-02-05T23:28:06.029Z,102040.57
2019-02-05T23:31:09.432Z,102037.09
2019-02-05T23:34:12.834Z,102039.80
2019-02-05T23:37:16.221Z,102039.57
2019-02-05T23:40:19.897Z,102043.53
2019-02-05T23:43:23.342Z,102049.50
2019-02-05T23:46:26.745Z,102049.19
2019-02-05T23:49:31.605Z,102055.78
2019-02-05T23:52:35.241Z,102048.39
2019-02-05T23:55:38.828Z,102047.77
2019-02-05T23:58:42.228Z,102052.13
